sensor_id;sensor_type;location;lat;lon;timestamp;pressure;altitude;pressure_sealevel;temperature;humidity
76998;BME280;65930;48.874;10.734;2023-12-28T00:00:32;96150.38;;;5.44;67.38
76998;BME280;65930;48.874;10.734;2023-12-28T00:03:02;96163.94;;;5.56;66.73
76998;BME280;65930;48.874;10.734;2023-12-28T00:05:30;96157.28;;;4.76;68.95
76998;BME280;65930;48.874;10.734;2023-12-28T00:07:58;96149.41;;;4.56;71.30
76998;BME280;65930;48.874;10.734;2023-12-28T00:10:27;96157.00;;;5.20;69.82
76998;BME280;65930;48.874;10.734;2023-12-28T00:12:55;96163.03;;;4.33;72.45
76998;BME280;65930;48.874;10.734;2023-12-28T00:15:23;96174.47;;;4.19;72.28
76998;BME280;65930;48.874;10.734;2023-12-28T00:17:51;96173.47;;;4.27;73.42
76998;BME280;65930;48.874;10.734;2023-12-28T00:20:21;96176.09;;;4.39;72.30
76998;BME280;65930;48.874;10.734;2023-12-28T00:22:49;96188.69;;;4.60;71.36
76998;BME280;65930;48.874;10.734;2023-12-28T00:25:17;96174.28;;;5.01;69.53
76998;BME280;65930;48.874;10.734;2023-12-28T00:27:45;96186.78;;;5.18;69.83
76998;BME280;65930;48.874;10.734;2023-12-28T00:30:14;96183.00;;;4.87;70.41
76998;BME280;65930;48.874;10.734;2023-12-28T00:32:44;96197.19;;;4.90;70.86
76998;BME280;65930;48.874;10.734;2023-12-28T00:35:13;96202.69;;;4.55;70.77
76998;BME280;65930;48.874;10.734;2023-12-28T00:37:42;96207.44;;;4.93;69.55
76998;BME280;65930;48.874;10.734;2023-12-28T00:40:10;96203.72;;;4.31;73.19
76998;BME280;65930;48.874;10.734;2023-12-28T00:42:38;96207.31;;;4.35;71.84
76998;BME280;65930;48.874;10.734;2023-12-28T00:45:08;96204.16;;;4.17;73.13
76998;BME280;65930;48.874;10.734;2023-12-28T00:47:36;96209.03;;;4.08;73.66
76998;BME280;65930;48.874;10.734;2023-12-28T00:50:05;96210.00;;;4.31;73.07
76998;BME280;65930;48.874;10.734;2023-12-28T00:52:33;96192.59;;;4.24;71.96
76998;BME280;65930;48.874;10.734;2023-12-28T00:55:03;96194.63;;;4.81;70.47
76998;BME280;65930;48.874;10.734;2023-12-28T00:57:31;96208.06;;;4.16;72.15
76998;BME280;65930;48.874;10.734;2023-12-28T01:00:00;96207.38;;;4.19;72.68
76998;BME280;65930;48.874;10.734;2023-12-28T01:02:28;96212.59;;;4.43;70.94
76998;BME280;65930;48.874;10.734;2023-12-28T01:04:56;96209.38;;;4.07;72.59
76998;BME280;65930;48.874;10.734;2023-12-28T01:07:24;96204.22;;;4.36;71.22
76998;BME280;65930;48.874;10.734;2023-12-28T01:09:52;96207.09;;;4.09;73.29
76998;BME280;65930;48.874;10.734;2023-12-28T01:12:22;96206.84;;;3.67;74.56
76998;BME280;65930;48.874;10.734;2023-12-28T01:14:50;96199.13;;;4.19;73.75
76998;BME280;65930;48.874;10.734;2023-12-28T01:17:18;96218.59;;;4.14;73.52
76998;BME280;65930;48.874;10.734;2023-12-28T01:19:46;96213.47;;;3.81;74.86
76998;BME280;65930;48.874;10.734;2023-12-28T01:22:14;96211.28;;;3.87;74.91
76998;BME280;65930;48.874;10.734;2023-12-28T01:24:46;96220.47;;;4.10;73.83
76998;BME280;65930;48.874;10.734;2023-12-28T01:27:18;96219.75;;;3.82;74.94
76998;BME280;65930;48.874;10.734;2023-12-28T01:29:47;96216.19;;;3.97;74.58
76998;BME280;65930;48.874;10.734;2023-12-28T01:32:15;96216.38;;;4.04;75.01
76998;BME280;65930;48.874;10.734;2023-12-28T01:34:43;96215.66;;;4.07;74.12
76998;BME280;65930;48.874;10.734;2023-12-28T01:37:11;96210.03;;;4.00;74.19
76998;BME280;65930;48.874;10.734;2023-12-28T01:39:39;96200.97;;;3.52;76.96
76998;BME280;65930;48.874;10.734;2023-12-28T01:42:08;96199.50;;;3.86;75.79
76998;BME280;65930;48.874;10.734;2023-12-28T01:44:37;96203.66;;;3.96;74.80
76998;BME280;65930;48.874;10.734;2023-12-28T01:47:06;96207.34;;;4.70;69.58
76998;BME280;65930;48.874;10.734;2023-12-28T01:49:36;96213.38;;;4.09;73.59
76998;BME280;65930;48.874;10.734;2023-12-28T01:52:06;96222.38;;;4.41;71.69
76998;BME280;65930;48.874;10.734;2023-12-28T01:54:36;96212.72;;;4.31;72.12
76998;BME280;65930;48.874;10.734;2023-12-28T01:57:06;96212.56;;;5.13;69.98
76998;BME280;65930;48.874;10.734;2023-12-28T01:59:34;96208.41;;;4.65;70.28
76998;BME280;65930;48.874;10.734;2023-12-28T02:02:03;96221.78;;;3.85;74.09
76998;BME280;65930;48.874;10.734;2023-12-28T02:04:33;96223.97;;;4.26;72.48
76998;BME280;65930;48.874;10.734;2023-12-28T02:07:01;96220.34;;;4.38;72.84
76998;BME280;65930;48.874;10.734;2023-12-28T02:09:30;96217.59;;;4.22;73.43
76998;BME280;65930;48.874;10.734;2023-12-28T02:11:58;96213.47;;;3.97;73.54
76998;BME280;65930;48.874;10.734;2023-12-28T02:14:26;96211.13;;;4.46;71.04
76998;BME280;65930;48.874;10.734;2023-12-28T02:17:04;96222.63;;;4.20;72.21
76998;BME280;65930;48.874;10.734;2023-12-28T02:19:45;96207.56;;;4.61;71.52
76998;BME280;65930;48.874;10.734;2023-12-28T02:22:26;96217.47;;;4.85;70.91
76998;BME280;65930;48.874;10.734;2023-12-28T02:25:04;96210.25;;;4.42;73.23
76998;BME280;65930;48.874;10.734;2023-12-28T02:27:35;96215.13;;;2.99;78.80
76998;BME280;65930;48.874;10.734;2023-12-28T02:30:06;96213.53;;;3.53;77.11
76998;BME280;65930;48.874;10.734;2023-12-28T02:32:54;96217.53;;;4.19;74.42
76998;BME280;65930;48.874;10.734;2023-12-28T02:35:29;96223.97;;;4.26;74.42
76998;BME280;65930;48.874;10.734;2023-12-28T02:38:02;96223.38;;;3.86;75.21
76998;BME280;65930;48.874;10.734;2023-12-28T02:40:36;96226.63;;;3.17;78.44
76998;BME280;65930;48.874;10.734;2023-12-28T02:43:05;96218.13;;;3.49;76.92
76998;BME280;65930;48.874;10.734;2023-12-28T02:45:34;96217.97;;;3.74;75.74
76998;BME280;65930;48.874;10.734;2023-12-28T02:48:03;96227.84;;;4.25;72.71
76998;BME280;65930;48.874;10.734;2023-12-28T02:50:33;96237.75;;;4.46;71.83
76998;BME280;65930;48.874;10.734;2023-12-28T02:53:02;96227.50;;;4.11;74.14
76998;BME280;65930;48.874;10.734;2023-12-28T02:55:30;96232.44;;;3.59;75.73
76998;BME280;65930;48.874;10.734;2023-12-28T02:57:59;96232.16;;;2.92;79.20
76998;BME280;65930;48.874;10.734;2023-12-28T03:00:28;96233.78;;;3.21;79.63
76998;BME280;65930;48.874;10.734;2023-12-28T03:02:57;96242.81;;;3.09;79.12
76998;BME280;65930;48.874;10.734;2023-12-28T03:05:25;96237.75;;;3.83;76.60
76998;BME280;65930;48.874;10.734;2023-12-28T03:07:53;96228.47;;;3.28;76.81
76998;BME280;65930;48.874;10.734;2023-12-28T03:10:22;96223.31;;;3.39;76.41
76998;BME280;65930;48.874;10.734;2023-12-28T03:12:50;96224.66;;;3.45;76.75
76998;BME280;65930;48.874;10.734;2023-12-28T03:15:20;96225.75;;;3.72;76.55
76998;BME280;65930;48.874;10.734;2023-12-28T03:17:48;96230.66;;;3.50;76.84
76998;BME280;65930;48.874;10.734;2023-12-28T03:20:16;96221.38;;;3.55;76.95
76998;BME280;65930;48.874;10.734;2023-12-28T03:22:44;96221.22;;;3.20;77.64
76998;BME280;65930;48.874;10.734;2023-12-28T03:25:14;96221.81;;;2.86;78.51
76998;BME280;65930;48.874;10.734;2023-12-28T03:27:42;96216.31;;;3.26;77.20
76998;BME280;65930;48.874;10.734;2023-12-28T03:30:11;96217.66;;;3.47;76.52
76998;BME280;65930;48.874;10.734;2023-12-28T03:32:40;96215.75;;;3.20;77.70
76998;BME280;65930;48.874;10.734;2023-12-28T03:35:08;96224.09;;;3.39;76.38
76998;BME280;65930;48.874;10.734;2023-12-28T03:37:36;96226.38;;;2.82;80.03
76998;BME280;65930;48.874;10.734;2023-12-28T03:40:05;96224.53;;;3.26;77.78
76998;BME280;65930;48.874;10.734;2023-12-28T03:42:33;96231.69;;;3.30;76.89
76998;BME280;65930;48.874;10.734;2023-12-28T03:45:02;96225.16;;;3.07;77.84
76998;BME280;65930;48.874;10.734;2023-12-28T03:47:30;96220.72;;;3.30;77.76
76998;BME280;65930;48.874;10.734;2023-12-28T03:49:59;96227.41;;;3.17;77.09
76998;BME280;65930;48.874;10.734;2023-12-28T03:52:27;96232.03;;;3.72;75.85
76998;BME280;65930;48.874;10.734;2023-12-28T03:54:57;96225.81;;;3.16;77.30
76998;BME280;65930;48.874;10.734;2023-12-28T03:57:25;96221.63;;;3.34;77.37
76998;BME280;65930;48.874;10.734;2023-12-28T03:59:53;96232.56;;;2.79;79.90
76998;BME280;65930;48.874;10.734;2023-12-28T04:02:22;96222.81;;;3.21;76.60
76998;BME280;65930;48.874;10.734;2023-12-28T04:04:51;96231.06;;;3.37;75.30
76998;BME280;65930;48.874;10.734;2023-12-28T04:07:21;96231.94;;;4.00;73.38
76998;BME280;65930;48.874;10.734;2023-12-28T04:09:49;96221.72;;;3.38;75.85
76998;BME280;65930;48.874;10.734;2023-12-28T04:12:17;96234.47;;;3.18;77.76
76998;BME280;65930;48.874;10.734;2023-12-28T04:14:45;96241.63;;;3.23;77.27
76998;BME280;65930;48.874;10.734;2023-12-28T04:17:13;96235.75;;;3.36;78.24
76998;BME280;65930;48.874;10.734;2023-12-28T04:19:41;96231.03;;;3.65;75.45
76998;BME280;65930;48.874;10.734;2023-12-28T04:22:09;96240.91;;;3.53;76.81
76998;BME280;65930;48.874;10.734;2023-12-28T04:24:39;96234.66;;;3.53;76.80
76998;BME280;65930;48.874;10.734;2023-12-28T04:27:07;96229.88;;;3.22;78.39
76998;BME280;65930;48.874;10.734;2023-12-28T04:29:35;96231.69;;;3.30;78.00
76998;BME280;65930;48.874;10.734;2023-12-28T04:32:03;96231.50;;;3.82;74.03
76998;BME280;65930;48.874;10.734;2023-12-28T04:34:31;96225.66;;;3.68;74.67
76998;BME280;65930;48.874;10.734;2023-12-28T04:36:59;96232.53;;;3.62;76.31
76998;BME280;65930;48.874;10.734;2023-12-28T04:39:28;96230.50;;;3.75;75.25
76998;BME280;65930;48.874;10.734;2023-12-28T04:41:57;96235.63;;;3.61;76.21
76998;BME280;65930;48.874;10.734;2023-12-28T04:44:25;96226.47;;;4.00;73.25
76998;BME280;65930;48.874;10.734;2023-12-28T04:46:53;96222.50;;;3.38;75.76
76998;BME280;65930;48.874;10.734;2023-12-28T04:49:21;96230.34;;;3.68;74.96
76998;BME280;65930;48.874;10.734;2023-12-28T04:51:50;96227.59;;;3.68;74.39
76998;BME280;65930;48.874;10.734;2023-12-28T04:54:18;96217.59;;;3.60;75.45
76998;BME280;65930;48.874;10.734;2023-12-28T04:56:46;96221.59;;;3.62;76.05
76998;BME280;65930;48.874;10.734;2023-12-28T04:59:15;96219.56;;;4.06;73.52
76998;BME280;65930;48.874;10.734;2023-12-28T05:01:43;96215.34;;;3.77;74.84
76998;BME280;65930;48.874;10.734;2023-12-28T05:04:12;96205.81;;;3.43;76.85
76998;BME280;65930;48.874;10.734;2023-12-28T05:06:43;96207.53;;;4.11;73.76
76998;BME280;65930;48.874;10.734;2023-12-28T05:09:12;96201.16;;;4.22;72.71
76998;BME280;65930;48.874;10.734;2023-12-28T05:11:40;96205.28;;;4.48;70.21
76998;BME280;65930;48.874;10.734;2023-12-28T05:14:08;96206.03;;;3.97;74.20
76998;BME280;65930;48.874;10.734;2023-12-28T05:16:38;96209.13;;;4.27;72.19
76998;BME280;65930;48.874;10.734;2023-12-28T05:19:06;96210.59;;;4.25;72.90
76998;BME280;65930;48.874;10.734;2023-12-28T05:21:36;96209.59;;;3.82;74.38
76998;BME280;65930;48.874;10.734;2023-12-28T05:24:05;96218.25;;;4.00;74.20
76998;BME280;65930;48.874;10.734;2023-12-28T05:26:33;96214.38;;;4.52;71.47
76998;BME280;65930;48.874;10.734;2023-12-28T05:29:01;96215.22;;;4.21;71.91
76998;BME280;65930;48.874;10.734;2023-12-28T05:31:29;96217.19;;;4.55;70.55
76998;BME280;65930;48.874;10.734;2023-12-28T05:33:59;96217.31;;;4.78;70.13
76998;BME280;65930;48.874;10.734;2023-12-28T05:36:27;96225.38;;;4.20;72.47
76998;BME280;65930;48.874;10.734;2023-12-28T05:38:55;96225.50;;;4.24;72.40
76998;BME280;65930;48.874;10.734;2023-12-28T05:41:23;96221.88;;;4.70;71.08
76998;BME280;65930;48.874;10.734;2023-12-28T05:43:51;96237.53;;;4.19;73.07
76998;BME280;65930;48.874;10.734;2023-12-28T05:46:19;96240.97;;;3.85;74.78
76998;BME280;65930;48.874;10.734;2023-12-28T05:48:47;96243.88;;;4.23;73.26
76998;BME280;65930;48.874;10.734;2023-12-28T05:51:17;96243.78;;;3.88;74.21
76998;BME280;65930;48.874;10.734;2023-12-28T05:53:46;96239.72;;;3.98;75.53
76998;BME280;65930;48.874;10.734;2023-12-28T05:56:14;96245.91;;;4.26;74.04
76998;BME280;65930;48.874;10.734;2023-12-28T05:58:42;96222.66;;;3.89;74.25
76998;BME280;65930;48.874;10.734;2023-12-28T06:01:10;96225.97;;;4.45;73.00
76998;BME280;65930;48.874;10.734;2023-12-28T06:03:38;96223.59;;;4.43;72.44
76998;BME280;65930;48.874;10.734;2023-12-28T06:06:06;96234.28;;;4.49;71.30
76998;BME280;65930;48.874;10.734;2023-12-28T06:08:36;96247.50;;;4.43;72.67
76998;BME280;65930;48.874;10.734;2023-12-28T06:11:04;96238.41;;;4.74;70.63
76998;BME280;65930;48.874;10.734;2023-12-28T06:13:32;96242.84;;;4.63;71.11
76998;BME280;65930;48.874;10.734;2023-12-28T06:16:00;96253.47;;;4.49;72.77
76998;BME280;65930;48.874;10.734;2023-12-28T06:18:29;96255.63;;;4.39;73.06
76998;BME280;65930;48.874;10.734;2023-12-28T06:20:58;96250.75;;;4.02;74.70
76998;BME280;65930;48.874;10.734;2023-12-28T06:23:26;96263.56;;;3.66;77.67
76998;BME280;65930;48.874;10.734;2023-12-28T06:25:55;96270.22;;;3.81;77.23
76998;BME280;65930;48.874;10.734;2023-12-28T06:28:23;96253.34;;;3.51;78.34
76998;BME280;65930;48.874;10.734;2023-12-28T06:30:51;96260.31;;;4.08;76.42
76998;BME280;65930;48.874;10.734;2023-12-28T06:33:19;96261.41;;;3.60;78.59
76998;BME280;65930;48.874;10.734;2023-12-28T06:35:48;96278.34;;;4.40;74.28
76998;BME280;65930;48.874;10.734;2023-12-28T06:38:16;96276.50;;;4.60;72.42
76998;BME280;65930;48.874;10.734;2023-12-28T06:40:44;96270.78;;;4.84;72.78
76998;BME280;65930;48.874;10.734;2023-12-28T06:43:13;96282.44;;;4.62;72.60
76998;BME280;65930;48.874;10.734;2023-12-28T06:45:42;96286.59;;;4.56;74.42
76998;BME280;65930;48.874;10.734;2023-12-28T06:48:10;96290.47;;;4.08;77.78
76998;BME280;65930;48.874;10.734;2023-12-28T06:50:38;96295.97;;;4.23;78.27
76998;BME280;65930;48.874;10.734;2023-12-28T06:53:06;96290.41;;;4.86;75.10
76998;BME280;65930;48.874;10.734;2023-12-28T06:55:34;96293.09;;;4.82;74.53
76998;BME280;65930;48.874;10.734;2023-12-28T06:58:03;96296.56;;;4.64;76.26
76998;BME280;65930;48.874;10.734;2023-12-28T07:00:34;96294.94;;;4.78;76.16
76998;BME280;65930;48.874;10.734;2023-12-28T07:03:03;96295.19;;;4.89;75.86
76998;BME280;65930;48.874;10.734;2023-12-28T07:05:31;96296.56;;;4.64;77.33
76998;BME280;65930;48.874;10.734;2023-12-28T07:07:59;96295.66;;;5.10;74.69
76998;BME280;65930;48.874;10.734;2023-12-28T07:10:27;96296.13;;;5.51;69.41
76998;BME280;65930;48.874;10.734;2023-12-28T07:12:56;96296.19;;;5.35;70.07
76998;BME280;65930;48.874;10.734;2023-12-28T07:15:24;96294.66;;;5.38;71.59
76998;BME280;65930;48.874;10.734;2023-12-28T07:17:53;96298.00;;;5.08;73.12
76998;BME280;65930;48.874;10.734;2023-12-28T07:20:21;96299.44;;;4.86;75.70
76998;BME280;65930;48.874;10.734;2023-12-28T07:22:49;96303.59;;;4.96;77.06
76998;BME280;65930;48.874;10.734;2023-12-28T07:25:20;96313.56;;;5.04;75.53
76998;BME280;65930;48.874;10.734;2023-12-28T07:27:48;96311.66;;;4.89;75.76
76998;BME280;65930;48.874;10.734;2023-12-28T07:30:16;96311.16;;;4.68;77.59
76998;BME280;65930;48.874;10.734;2023-12-28T07:32:45;96314.03;;;4.56;79.66
76998;BME280;65930;48.874;10.734;2023-12-28T07:35:14;96320.38;;;4.75;78.70
76998;BME280;65930;48.874;10.734;2023-12-28T07:37:42;96319.84;;;5.05;76.36
76998;BME280;65930;48.874;10.734;2023-12-28T07:40:12;96316.69;;;5.03;76.86
76998;BME280;65930;48.874;10.734;2023-12-28T07:42:41;96310.34;;;5.18;74.26
76998;BME280;65930;48.874;10.734;2023-12-28T07:45:09;96312.19;;;5.68;69.54
76998;BME280;65930;48.874;10.734;2023-12-28T07:47:37;96303.59;;;5.50;71.95
76998;BME280;65930;48.874;10.734;2023-12-28T07:50:06;96303.59;;;5.50;73.60
76998;BME280;65930;48.874;10.734;2023-12-28T07:52:35;96305.53;;;5.69;72.89
76998;BME280;65930;48.874;10.734;2023-12-28T07:55:04;96306.41;;;5.73;73.89
76998;BME280;65930;48.874;10.734;2023-12-28T07:57:33;96307.69;;;5.98;71.10
76998;BME280;65930;48.874;10.734;2023-12-28T08:00:02;96311.53;;;5.94;69.33
76998;BME280;65930;48.874;10.734;2023-12-28T08:02:30;96306.16;;;6.01;67.71
76998;BME280;65930;48.874;10.734;2023-12-28T08:04:59;96308.13;;;5.81;69.18
76998;BME280;65930;48.874;10.734;2023-12-28T08:07:27;96306.59;;;6.03;67.26
76998;BME280;65930;48.874;10.734;2023-12-28T08:09:56;96309.53;;;6.13;66.61
76998;BME280;65930;48.874;10.734;2023-12-28T08:12:24;96313.22;;;6.44;66.89
76998;BME280;65930;48.874;10.734;2023-12-28T08:14:55;96314.22;;;6.58;64.60
76998;BME280;65930;48.874;10.734;2023-12-28T08:17:23;96303.91;;;6.52;63.96
76998;BME280;65930;48.874;10.734;2023-12-28T08:19:51;96305.66;;;6.63;64.53
76998;BME280;65930;48.874;10.734;2023-12-28T08:22:19;96304.59;;;6.45;66.29
76998;BME280;65930;48.874;10.734;2023-12-28T08:24:47;96314.53;;;6.76;65.54
76998;BME280;65930;48.874;10.734;2023-12-28T08:27:17;96312.19;;;6.78;64.88
76998;BME280;65930;48.874;10.734;2023-12-28T08:29:45;96306.09;;;6.66;66.30
76998;BME280;65930;48.874;10.734;2023-12-28T08:32:13;96319.22;;;6.98;65.48
76998;BME280;65930;48.874;10.734;2023-12-28T08:34:41;96323.53;;;6.73;66.43
76998;BME280;65930;48.874;10.734;2023-12-28T08:37:09;96328.41;;;7.09;64.42
76998;BME280;65930;48.874;10.734;2023-12-28T08:39:37;96341.75;;;6.81;65.07
76998;BME280;65930;48.874;10.734;2023-12-28T08:42:07;96342.38;;;6.71;66.33
76998;BME280;65930;48.874;10.734;2023-12-28T08:44:36;96341.44;;;6.86;65.30
76998;BME280;65930;48.874;10.734;2023-12-28T08:47:05;96328.53;;;6.68;66.23
76998;BME280;65930;48.874;10.734;2023-12-28T08:49:33;96330.69;;;6.55;66.58
76998;BME280;65930;48.874;10.734;2023-12-28T08:52:01;96325.44;;;6.69;65.96
76998;BME280;65930;48.874;10.734;2023-12-28T08:54:29;96342.53;;;7.04;65.04
76998;BME280;65930;48.874;10.734;2023-12-28T08:56:57;96345.91;;;7.21;63.87
76998;BME280;65930;48.874;10.734;2023-12-28T08:59:25;96360.31;;;7.11;63.50
76998;BME280;65930;48.874;10.734;2023-12-28T09:01:55;96355.41;;;7.00;64.12
76998;BME280;65930;48.874;10.734;2023-12-28T09:04:23;96360.75;;;7.13;63.81
76998;BME280;65930;48.874;10.734;2023-12-28T09:06:51;96348.13;;;6.85;64.26
76998;BME280;65930;48.874;10.734;2023-12-28T09:09:19;96347.69;;;7.09;64.25
76998;BME280;65930;48.874;10.734;2023-12-28T09:11:48;96335.91;;;6.86;64.94
76998;BME280;65930;48.874;10.734;2023-12-28T09:14:16;96335.41;;;7.03;63.22
76998;BME280;65930;48.874;10.734;2023-12-28T09:16:45;96337.81;;;6.82;64.53
76998;BME280;65930;48.874;10.734;2023-12-28T09:19:14;96332.03;;;7.14;63.61
76998;BME280;65930;48.874;10.734;2023-12-28T09:21:43;96348.22;;;7.19;63.78
76998;BME280;65930;48.874;10.734;2023-12-28T09:24:11;96345.69;;;7.06;64.07
76998;BME280;65930;48.874;10.734;2023-12-28T09:26:39;96345.25;;;7.31;63.05
76998;BME280;65930;48.874;10.734;2023-12-28T09:29:07;96352.69;;;7.27;62.35
76998;BME280;65930;48.874;10.734;2023-12-28T09:31:35;96361.69;;;7.24;63.85
76998;BME280;65930;48.874;10.734;2023-12-28T09:34:04;96358.31;;;7.07;63.12
76998;BME280;65930;48.874;10.734;2023-12-28T09:36:33;96355.31;;;7.20;62.80
76998;BME280;65930;48.874;10.734;2023-12-28T09:39:01;96349.84;;;7.49;62.40
76998;BME280;65930;48.874;10.734;2023-12-28T09:41:36;96353.16;;;7.62;62.04
76998;BME280;65930;48.874;10.734;2023-12-28T09:44:11;96348.09;;;7.38;63.27
76998;BME280;65930;48.874;10.734;2023-12-28T09:46:41;96327.69;;;7.13;64.24
76998;BME280;65930;48.874;10.734;2023-12-28T09:49:11;96326.41;;;7.06;65.04
76998;BME280;65930;48.874;10.734;2023-12-28T09:51:40;96332.91;;;7.21;63.89
76998;BME280;65930;48.874;10.734;2023-12-28T09:54:08;96318.53;;;7.35;63.45
76998;BME280;65930;48.874;10.734;2023-12-28T09:56:37;96328.72;;;7.31;63.36
76998;BME280;65930;48.874;10.734;2023-12-28T09:59:06;96328.72;;;7.31;63.16
76998;BME280;65930;48.874;10.734;2023-12-28T10:01:34;96324.63;;;7.18;64.73
76998;BME280;65930;48.874;10.734;2023-12-28T10:04:03;96319.53;;;7.49;63.46
76998;BME280;65930;48.874;10.734;2023-12-28T10:06:31;96300.59;;;7.48;63.93
76998;BME280;65930;48.874;10.734;2023-12-28T10:09:01;96292.00;;;7.53;62.59
76998;BME280;65930;48.874;10.734;2023-12-28T10:11:29;96297.63;;;7.60;62.21
76998;BME280;65930;48.874;10.734;2023-12-28T10:13:59;96297.19;;;7.58;62.35
76998;BME280;65930;48.874;10.734;2023-12-28T10:16:27;96307.63;;;7.75;62.38
76998;BME280;65930;48.874;10.734;2023-12-28T10:18:55;96297.09;;;7.84;61.93
76998;BME280;65930;48.874;10.734;2023-12-28T10:21:24;96292.50;;;7.62;63.20
76998;BME280;65930;48.874;10.734;2023-12-28T10:23:52;96299.31;;;7.72;62.34
76998;BME280;65930;48.874;10.734;2023-12-28T10:26:24;96301.28;;;7.71;62.53
76998;BME280;65930;48.874;10.734;2023-12-28T10:28:57;96294.66;;;7.79;63.12
76998;BME280;65930;48.874;10.734;2023-12-28T10:31:25;96298.69;;;7.85;61.58
76998;BME280;65930;48.874;10.734;2023-12-28T10:33:53;96299.63;;;7.96;61.62
76998;BME280;65930;48.874;10.734;2023-12-28T10:36:22;96286.06;;;7.84;62.71
76998;BME280;65930;48.874;10.734;2023-12-28T10:38:53;96273.34;;;7.73;63.48
76998;BME280;65930;48.874;10.734;2023-12-28T10:41:25;96281.75;;;7.83;63.16
76998;BME280;65930;48.874;10.734;2023-12-28T10:44:02;96282.16;;;7.85;63.22
76998;BME280;65930;48.874;10.734;2023-12-28T10:46:40;96274.97;;;7.77;62.17
76998;BME280;65930;48.874;10.734;2023-12-28T10:49:11;96270.44;;;7.95;62.30
76998;BME280;65930;48.874;10.734;2023-12-28T10:51:41;96274.47;;;8.05;62.13
76998;BME280;65930;48.874;10.734;2023-12-28T10:54:27;96275.13;;;7.91;63.36
76998;BME280;65930;48.874;10.734;2023-12-28T10:57:09;96260.81;;;8.16;62.12
76998;BME280;65930;48.874;10.734;2023-12-28T10:59:47;96266.50;;;7.93;63.05
76998;BME280;65930;48.874;10.734;2023-12-28T11:02:18;96265.41;;;8.05;63.18
76998;BME280;65930;48.874;10.734;2023-12-28T11:04:50;96268.03;;;7.94;63.48
76998;BME280;65930;48.874;10.734;2023-12-28T11:07:21;96262.94;;;7.92;63.49
76998;BME280;65930;48.874;10.734;2023-12-28T11:09:49;96261.59;;;7.79;64.04
76998;BME280;65930;48.874;10.734;2023-12-28T11:12:20;96268.84;;;7.94;63.94
76998;BME280;65930;48.874;10.734;2023-12-28T11:14:49;96272.75;;;7.90;64.16
76998;BME280;65930;48.874;10.734;2023-12-28T11:17:20;96280.88;;;7.79;64.68
76998;BME280;65930;48.874;10.734;2023-12-28T11:19:51;96279.34;;;7.82;63.77
76998;BME280;65930;48.874;10.734;2023-12-28T11:22:21;96287.09;;;7.69;64.30
76998;BME280;65930;48.874;10.734;2023-12-28T11:24:52;96279.16;;;7.64;64.83
76998;BME280;65930;48.874;10.734;2023-12-28T11:27:21;96281.25;;;7.74;63.91
76998;BME280;65930;48.874;10.734;2023-12-28T11:29:51;96283.91;;;7.67;65.04
76998;BME280;65930;48.874;10.734;2023-12-28T11:32:19;96273.31;;;7.69;64.02
76998;BME280;65930;48.874;10.734;2023-12-28T11:34:56;96273.13;;;7.88;64.11
76998;BME280;65930;48.874;10.734;2023-12-28T11:37:26;96276.78;;;8.00;63.95
76998;BME280;65930;48.874;10.734;2023-12-28T11:39:55;96264.28;;;8.09;63.86
76998;BME280;65930;48.874;10.734;2023-12-28T11:42:26;96270.91;;;8.01;64.34
76998;BME280;65930;48.874;10.734;2023-12-28T11:44:55;96277.00;;;7.84;63.74
76998;BME280;65930;48.874;10.734;2023-12-28T11:47:24;96270.44;;;7.95;64.23
76998;BME280;65930;48.874;10.734;2023-12-28T11:49:54;96269.31;;;8.00;64.07
76998;BME280;65930;48.874;10.734;2023-12-28T11:52:24;96273.50;;;7.87;64.31
76998;BME280;65930;48.874;10.734;2023-12-28T11:54:52;96251.69;;;8.12;63.87
76998;BME280;65930;48.874;10.734;2023-12-28T11:57:21;96251.19;;;8.03;64.40
76998;BME280;65930;48.874;10.734;2023-12-28T11:59:56;96255.63;;;8.11;64.23
76998;BME280;65930;48.874;10.734;2023-12-28T12:02:25;96253.66;;;8.11;64.77
76998;BME280;65930;48.874;10.734;2023-12-28T12:04:54;96240.66;;;8.12;65.40
76998;BME280;65930;48.874;10.734;2023-12-28T12:07:24;96227.25;;;8.14;65.17
76998;BME280;65930;48.874;10.734;2023-12-28T12:09:55;96222.78;;;8.39;64.46
76998;BME280;65930;48.874;10.734;2023-12-28T12:12:24;96231.53;;;8.08;64.20
76998;BME280;65930;48.874;10.734;2023-12-28T12:14:54;96248.16;;;8.15;65.97
76998;BME280;65930;48.874;10.734;2023-12-28T12:17:24;96226.66;;;8.31;65.29
76998;BME280;65930;48.874;10.734;2023-12-28T12:19:52;96228.81;;;8.52;63.50
76998;BME280;65930;48.874;10.734;2023-12-28T12:22:23;96227.06;;;8.29;64.81
76998;BME280;65930;48.874;10.734;2023-12-28T12:24:56;96220.16;;;8.57;63.43
76998;BME280;65930;48.874;10.734;2023-12-28T12:27:26;96221.00;;;8.68;63.52
76998;BME280;65930;48.874;10.734;2023-12-28T12:29:55;96222.81;;;8.43;63.74
76998;BME280;65930;48.874;10.734;2023-12-28T12:32:24;96216.19;;;8.54;63.37
76998;BME280;65930;48.874;10.734;2023-12-28T12:34:53;96220.56;;;8.59;63.75
76998;BME280;65930;48.874;10.734;2023-12-28T12:37:21;96229.25;;;8.57;64.22
76998;BME280;65930;48.874;10.734;2023-12-28T12:39:50;96213.16;;;8.73;64.23
76998;BME280;65930;48.874;10.734;2023-12-28T12:42:18;96230.84;;;8.58;64.62
76998;BME280;65930;48.874;10.734;2023-12-28T12:44:47;96226.06;;;8.55;65.62
76998;BME280;65930;48.874;10.734;2023-12-28T12:47:16;96227.53;;;8.38;64.81
76998;BME280;65930;48.874;10.734;2023-12-28T12:49:44;96215.44;;;8.57;64.61
76998;BME280;65930;48.874;10.734;2023-12-28T12:52:12;96220.53;;;8.55;65.21
76998;BME280;65930;48.874;10.734;2023-12-28T12:54:41;96224.75;;;8.35;65.99
76998;BME280;65930;48.874;10.734;2023-12-28T12:57:09;96222.31;;;8.30;65.59
76998;BME280;65930;48.874;10.734;2023-12-28T12:59:38;96230.31;;;8.42;66.49
76998;BME280;65930;48.874;10.734;2023-12-28T13:02:07;96220.78;;;8.36;66.24
76998;BME280;65930;48.874;10.734;2023-12-28T13:04:39;96225.09;;;8.30;66.85
76998;BME280;65930;48.874;10.734;2023-12-28T13:07:07;96211.75;;;8.39;66.51
76998;BME280;65930;48.874;10.734;2023-12-28T13:09:35;96201.06;;;8.34;65.92